LIMW/AOT METAR and TAF weather

Enter ICAO airport designator
Station Type Date Time Source
LIMW METAR 2022/11/30 10:50 UTC NOAA

LIMW 301050Z AUTO VRB01KT 9000 NCD M00/M00 Q1017


Station Type Date Time Source
LIMW Decoded METAR 2022/11/30 10:50 UTC NOAA

Station name not available
Nov 30, 2022 - 05:50 AM EST / 2022.11.30 1050 UTC
Wind: Variable at 1 MPH (1 KT):0
Visibility: 5 mile(s):0
Temperature: 32 F (0 C)
Dew Point: 32 F (0 C)
Relative Humidity: 100%
Pressure (altimeter): 30.03 in. Hg (1017 hPa)
ob: LIMW 301050Z AUTO VRB01KT 9000 NCD M00/M00 Q1017
cycle: 11

Station Type Date Time Source
LIMW TAF UTC NOAA

Error!

Example: see airport list